KPRO/PRO METAR and TAF weather

Enter ICAO airport designator
Station Type Date Time Source
KPRO METAR 2019/06/24 14:35 UTC NOAA

KPRO 241435Z AUTO 28008KT 10SM OVC043 17/16 A2974 RMK AO2 T01660159


Station Type Date Time Source
KPRO Decoded METAR 2019/06/24 14:35 UTC NOAA

Station name not available
Jun 24, 2019 - 10:35 AM EDT / 2019.06.24 1435 UTC
Wind: from the W (280 degrees) at 9 MPH (8 KT):0
Visibility: 10 mile(s):0
Sky conditions: overcast
Temperature: 61.9 F (16.6 C)
Dew Point: 60.6 F (15.9 C)
Relative Humidity: 95%
Pressure (altimeter): 29.74 in. Hg (1007 hPa)
ob: KPRO 241435Z AUTO 28008KT 10SM OVC043 17/16 A2974 RMK AO2 T01660159
cycle: 14

Station Type Date Time Source
KPRO TAF UTC NOAA

Error!

Example: see airport list